Brockville, Canada
Current Conditions -  °F | °C
As of 2:58 PM on Sunday 23 Nov 2014 (Local Time) from KGTB Reporting Station
Overcast Overcast  
Wind Chill: 40°   Ceiling: 4700
Heat Index: 45°   Visibility: 10mi
Dew Point: 36°   Wind: 8mph
Humidity: 72%   Direction: 200°SSW
Pressure: 29.98"   Gusts: NA
Location:  44.59°N, 75.68°W
Report Text: KGTB 231958Z AUTO 20007KT 10SM OVC047 07/02 A2998 RMK AO2 SLP157 T00700023
Loading
Personal Weather Stations






























Interactive Weather Map New forecast layout! Learn more

10-Day Weather Forecast

Advertisements
Track Severe Weather on mobile